sensor_id;sensor_type;location;lat;lon;timestamp;pressure;altitude;pressure_sealevel;temperature;humidity
32875;BME280;40468;42.128;24.750;2022-08-19T00:01:16;99139.44;;;27.29;38.90
32875;BME280;40468;42.128;24.750;2022-08-19T00:02:46;99143.94;;;27.29;38.74
32875;BME280;40468;42.128;24.750;2022-08-19T00:04:19;99144.78;;;27.29;39.08
32875;BME280;40468;42.128;24.750;2022-08-19T00:05:51;99141.84;;;27.24;38.95
32875;BME280;40468;42.128;24.750;2022-08-19T00:07:23;99147.56;;;27.21;38.95
32875;BME280;40468;42.128;24.750;2022-08-19T00:08:54;99144.69;;;27.16;39.24
32875;BME280;40468;42.128;24.750;2022-08-19T00:10:26;99143.34;;;27.12;39.15
32875;BME280;40468;42.128;24.750;2022-08-19T00:11:58;99145.59;;;27.08;39.22
32875;BME280;40468;42.128;24.750;2022-08-19T00:13:29;99145.81;;;27.07;39.00
32875;BME280;40468;42.128;24.750;2022-08-19T00:15:01;99154.81;;;27.06;39.58
32875;BME280;40468;42.128;24.750;2022-08-19T00:16:33;99142.44;;;26.98;39.81
32875;BME280;40468;42.128;24.750;2022-08-19T00:18:04;99142.81;;;26.95;39.88
32875;BME280;40468;42.128;24.750;2022-08-19T00:19:36;99147.31;;;26.94;39.74
32875;BME280;40468;42.128;24.750;2022-08-19T00:21:09;99144.00;;;26.92;39.91
32875;BME280;40468;42.128;24.750;2022-08-19T00:22:40;99143.56;;;26.89;40.11
32875;BME280;40468;42.128;24.750;2022-08-19T00:24:12;99140.00;;;26.82;40.89
32875;BME280;40468;42.128;24.750;2022-08-19T00:25:44;99138.53;;;26.79;40.51
32875;BME280;40468;42.128;24.750;2022-08-19T00:27:16;99133.38;;;26.77;40.66
32875;BME280;40468;42.128;24.750;2022-08-19T00:28:48;99138.03;;;26.69;41.36
32875;BME280;40468;42.128;24.750;2022-08-19T00:30:19;99137.56;;;26.65;41.51
32875;BME280;40468;42.128;24.750;2022-08-19T00:31:51;99141.81;;;26.60;41.45
32875;BME280;40468;42.128;24.750;2022-08-19T00:33:26;99141.00;;;26.59;41.35
32875;BME280;40468;42.128;24.750;2022-08-19T00:34:57;99144.28;;;26.61;41.11
32875;BME280;40468;42.128;24.750;2022-08-19T00:36:29;99138.13;;;26.61;41.20
32875;BME280;40468;42.128;24.750;2022-08-19T00:38:03;99133.81;;;26.60;41.25
32875;BME280;40468;42.128;24.750;2022-08-19T00:39:36;99124.97;;;26.59;40.72
32875;BME280;40468;42.128;24.750;2022-08-19T00:41:08;99130.50;;;26.58;40.98
32875;BME280;40468;42.128;24.750;2022-08-19T00:42:40;99130.66;;;26.56;41.12
32875;BME280;40468;42.128;24.750;2022-08-19T00:44:13;99129.84;;;26.55;41.25
32875;BME280;40468;42.128;24.750;2022-08-19T00:45:44;99123.25;;;26.51;40.90
32875;BME280;40468;42.128;24.750;2022-08-19T00:47:16;99126.25;;;26.48;41.29
32875;BME280;40468;42.128;24.750;2022-08-19T00:48:48;99120.47;;;26.45;41.40
32875;BME280;40468;42.128;24.750;2022-08-19T00:50:18;99120.00;;;26.41;41.29
32875;BME280;40468;42.128;24.750;2022-08-19T00:51:55;99110.72;;;26.37;41.60
32875;BME280;40468;42.128;24.750;2022-08-19T00:53:29;99112.75;;;26.35;41.85
32875;BME280;40468;42.128;24.750;2022-08-19T00:55:05;99113.69;;;26.27;42.79
32875;BME280;40468;42.128;24.750;2022-08-19T00:56:38;99118.50;;;26.17;42.94
32875;BME280;40468;42.128;24.750;2022-08-19T00:58:12;99105.72;;;26.13;42.69
32875;BME280;40468;42.128;24.750;2022-08-19T00:59:46;99111.81;;;26.06;42.60
32875;BME280;40468;42.128;24.750;2022-08-19T01:01:19;99104.78;;;26.05;42.34
32875;BME280;40468;42.128;24.750;2022-08-19T01:02:50;99110.13;;;26.05;43.09
32875;BME280;40468;42.128;24.750;2022-08-19T01:04:22;99107.66;;;26.04;42.87
32875;BME280;40468;42.128;24.750;2022-08-19T01:05:54;99094.50;;;26.02;43.05
32875;BME280;40468;42.128;24.750;2022-08-19T01:07:27;99099.00;;;26.02;42.50
32875;BME280;40468;42.128;24.750;2022-08-19T01:08:59;99110.69;;;26.01;42.76
32875;BME280;40468;42.128;24.750;2022-08-19T01:10:32;99105.53;;;25.99;42.65
32875;BME280;40468;42.128;24.750;2022-08-19T01:12:04;99096.91;;;25.97;42.67
32875;BME280;40468;42.128;24.750;2022-08-19T01:13:36;99099.75;;;25.96;42.52
32875;BME280;40468;42.128;24.750;2022-08-19T01:15:09;99103.44;;;25.95;42.21
32875;BME280;40468;42.128;24.750;2022-08-19T01:16:42;99099.94;;;25.94;42.59
32875;BME280;40468;42.128;24.750;2022-08-19T01:18:15;99099.31;;;25.92;42.98
32875;BME280;40468;42.128;24.750;2022-08-19T01:19:48;99093.97;;;25.92;42.74
32875;BME280;40468;42.128;24.750;2022-08-19T01:21:21;99100.13;;;25.93;42.38
32875;BME280;40468;42.128;24.750;2022-08-19T01:22:55;99109.16;;;25.92;42.74
32875;BME280;40468;42.128;24.750;2022-08-19T01:24:28;99104.63;;;25.92;42.75
32875;BME280;40468;42.128;24.750;2022-08-19T01:26:01;99109.16;;;25.92;42.33
32875;BME280;40468;42.128;24.750;2022-08-19T01:27:36;99111.81;;;25.92;42.57
32875;BME280;40468;42.128;24.750;2022-08-19T01:29:09;99108.31;;;25.91;43.01
32875;BME280;40468;42.128;24.750;2022-08-19T01:30:40;99116.88;;;25.86;43.11
32875;BME280;40468;42.128;24.750;2022-08-19T01:32:15;99117.25;;;25.83;43.69
32875;BME280;40468;42.128;24.750;2022-08-19T01:33:47;99115.94;;;25.79;43.60
32875;BME280;40468;42.128;24.750;2022-08-19T01:35:20;99124.63;;;25.73;44.08
32875;BME280;40468;42.128;24.750;2022-08-19T01:36:53;99112.97;;;25.59;45.03
32875;BME280;40468;42.128;24.750;2022-08-19T01:38:26;99124.25;;;25.47;45.27
32875;BME280;40468;42.128;24.750;2022-08-19T01:39:58;99123.53;;;25.38;45.86
32875;BME280;40468;42.128;24.750;2022-08-19T01:41:30;99126.41;;;25.28;46.00
32875;BME280;40468;42.128;24.750;2022-08-19T01:43:02;99131.94;;;25.27;45.88
32875;BME280;40468;42.128;24.750;2022-08-19T01:44:34;99136.97;;;25.22;46.16
32875;BME280;40468;42.128;24.750;2022-08-19T01:46:06;99137.16;;;25.20;46.43
32875;BME280;40468;42.128;24.750;2022-08-19T01:47:37;99135.84;;;25.16;46.59
32875;BME280;40468;42.128;24.750;2022-08-19T01:49:09;99135.84;;;25.16;46.29
32875;BME280;40468;42.128;24.750;2022-08-19T01:50:41;99138.38;;;25.09;46.81
32875;BME280;40468;42.128;24.750;2022-08-19T01:52:13;99146.63;;;25.00;47.44
32875;BME280;40468;42.128;24.750;2022-08-19T01:53:48;99151.00;;;24.92;47.71
32875;BME280;40468;42.128;24.750;2022-08-19T01:55:21;99154.19;;;24.88;47.61
32875;BME280;40468;42.128;24.750;2022-08-19T01:56:55;99153.53;;;24.86;47.93
32875;BME280;40468;42.128;24.750;2022-08-19T01:58:29;99152.16;;;24.90;46.92
32875;BME280;40468;42.128;24.750;2022-08-19T02:00:03;99150.47;;;24.97;46.50
32875;BME280;40468;42.128;24.750;2022-08-19T02:01:35;99151.59;;;25.03;46.42
32875;BME280;40468;42.128;24.750;2022-08-19T02:03:07;99156.56;;;25.06;46.31
32875;BME280;40468;42.128;24.750;2022-08-19T02:04:41;99158.38;;;25.05;46.87
32875;BME280;40468;42.128;24.750;2022-08-19T02:06:12;99154.88;;;25.05;46.84
32875;BME280;40468;42.128;24.750;2022-08-19T02:07:44;99162.88;;;25.05;46.44
32875;BME280;40468;42.128;24.750;2022-08-19T02:09:16;99162.53;;;25.08;46.40
32875;BME280;40468;42.128;24.750;2022-08-19T02:10:48;99160.72;;;25.08;46.71
32875;BME280;40468;42.128;24.750;2022-08-19T02:12:20;99163.53;;;25.07;46.55
32875;BME280;40468;42.128;24.750;2022-08-19T02:13:52;99157.19;;;25.08;46.07
32875;BME280;40468;42.128;24.750;2022-08-19T02:15:24;99164.38;;;25.07;46.31
32875;BME280;40468;42.128;24.750;2022-08-19T02:16:55;99162.53;;;25.08;46.09
32875;BME280;40468;42.128;24.750;2022-08-19T02:18:27;99173.03;;;25.09;45.84
32875;BME280;40468;42.128;24.750;2022-08-19T02:19:59;99172.81;;;25.11;45.67
32875;BME280;40468;42.128;24.750;2022-08-19T02:21:30;99172.00;;;25.10;46.56
32875;BME280;40468;42.128;24.750;2022-08-19T02:23:02;99175.84;;;25.08;46.50
32875;BME280;40468;42.128;24.750;2022-08-19T02:24:34;99181.38;;;25.06;46.15
32875;BME280;40468;42.128;24.750;2022-08-19T02:26:05;99186.34;;;25.09;45.91
32875;BME280;40468;42.128;24.750;2022-08-19T02:27:37;99182.50;;;25.12;45.82
32875;BME280;40468;42.128;24.750;2022-08-19T02:29:08;99177.84;;;25.14;45.46
32875;BME280;40468;42.128;24.750;2022-08-19T02:30:40;99169.69;;;25.15;45.89
32875;BME280;40468;42.128;24.750;2022-08-19T02:32:12;99169.84;;;25.14;45.81
32875;BME280;40468;42.128;24.750;2022-08-19T02:33:44;99179.66;;;25.13;45.76
32875;BME280;40468;42.128;24.750;2022-08-19T02:35:14;99180.50;;;25.14;46.13
32875;BME280;40468;42.128;24.750;2022-08-19T02:36:46;99178.69;;;25.14;46.23
32875;BME280;40468;42.128;24.750;2022-08-19T02:38:18;99176.66;;;25.16;45.86
32875;BME280;40468;42.128;24.750;2022-08-19T02:39:59;99177.66;;;25.15;45.72
32875;BME280;40468;42.128;24.750;2022-08-19T02:41:30;99186.69;;;25.14;45.92
32875;BME280;40468;42.128;24.750;2022-08-19T02:43:03;99184.16;;;25.13;45.68
32875;BME280;40468;42.128;24.750;2022-08-19T02:44:35;99192.00;;;25.14;45.67
32875;BME280;40468;42.128;24.750;2022-08-19T02:46:11;99190.66;;;25.10;46.01
32875;BME280;40468;42.128;24.750;2022-08-19T02:47:43;99193.16;;;25.12;45.73
32875;BME280;40468;42.128;24.750;2022-08-19T02:49:14;99193.16;;;25.12;46.03
32875;BME280;40468;42.128;24.750;2022-08-19T02:50:46;99190.50;;;25.12;45.83
32875;BME280;40468;42.128;24.750;2022-08-19T02:52:17;99185.00;;;25.13;46.15
32875;BME280;40468;42.128;24.750;2022-08-19T02:53:49;99190.84;;;25.09;46.39
32875;BME280;40468;42.128;24.750;2022-08-19T02:55:22;99191.84;;;25.08;46.29
32875;BME280;40468;42.128;24.750;2022-08-19T02:56:53;99192.84;;;25.07;46.41
32875;BME280;40468;42.128;24.750;2022-08-19T02:58:25;99193.19;;;25.04;47.04
32875;BME280;40468;42.128;24.750;2022-08-19T02:59:57;99196.09;;;24.94;47.26
32875;BME280;40468;42.128;24.750;2022-08-19T03:01:29;99197.09;;;24.93;46.76
32875;BME280;40468;42.128;24.750;2022-08-19T03:03:01;99201.44;;;24.94;46.72
32875;BME280;40468;42.128;24.750;2022-08-19T03:04:33;99200.78;;;24.92;47.32
32875;BME280;40468;42.128;24.750;2022-08-19T03:06:06;99200.09;;;24.90;46.85
32875;BME280;40468;42.128;24.750;2022-08-19T03:07:37;99197.28;;;24.91;46.95
32875;BME280;40468;42.128;24.750;2022-08-19T03:09:09;99198.00;;;24.85;47.31
32875;BME280;40468;42.128;24.750;2022-08-19T03:10:43;99203.31;;;24.85;47.25
32875;BME280;40468;42.128;24.750;2022-08-19T03:12:16;99203.31;;;24.85;47.18
32875;BME280;40468;42.128;24.750;2022-08-19T03:13:47;99196.16;;;24.86;47.43
32875;BME280;40468;42.128;24.750;2022-08-19T03:15:21;99200.47;;;24.87;47.13
32875;BME280;40468;42.128;24.750;2022-08-19T03:16:51;99200.31;;;24.88;47.05
32875;BME280;40468;42.128;24.750;2022-08-19T03:18:23;99202.78;;;24.90;46.89
32875;BME280;40468;42.128;24.750;2022-08-19T03:19:55;99199.13;;;24.91;47.03
32875;BME280;40468;42.128;24.750;2022-08-19T03:21:30;99208.75;;;24.92;46.94
32875;BME280;40468;42.128;24.750;2022-08-19T03:23:01;99209.59;;;24.92;47.28
32875;BME280;40468;42.128;24.750;2022-08-19T03:24:32;99213.25;;;24.91;47.20
32875;BME280;40468;42.128;24.750;2022-08-19T03:26:05;99213.25;;;24.91;46.88
32875;BME280;40468;42.128;24.750;2022-08-19T03:27:37;99210.59;;;24.91;47.10
32875;BME280;40468;42.128;24.750;2022-08-19T03:29:09;99208.91;;;24.90;47.11
32875;BME280;40468;42.128;24.750;2022-08-19T03:30:42;99219.56;;;24.90;47.25
32875;BME280;40468;42.128;24.750;2022-08-19T03:32:14;99221.41;;;24.90;47.11
32875;BME280;40468;42.128;24.750;2022-08-19T03:33:45;99216.09;;;24.90;46.99
32875;BME280;40468;42.128;24.750;2022-08-19T03:35:17;99215.47;;;24.88;47.33
32875;BME280;40468;42.128;24.750;2022-08-19T03:36:50;99216.44;;;24.87;47.23
32875;BME280;40468;42.128;24.750;2022-08-19T03:38:22;99219.47;;;24.84;48.35
32875;BME280;40468;42.128;24.750;2022-08-19T03:39:53;99217.97;;;24.81;48.02
32875;BME280;40468;42.128;24.750;2022-08-19T03:41:27;99217.34;;;24.79;48.16
32875;BME280;40468;42.128;24.750;2022-08-19T03:43:00;99221.66;;;24.80;47.57
32875;BME280;40468;42.128;24.750;2022-08-19T03:44:31;99217.97;;;24.81;47.87
32875;BME280;40468;42.128;24.750;2022-08-19T03:46:04;99227.78;;;24.81;48.00
32875;BME280;40468;42.128;24.750;2022-08-19T03:47:36;99229.28;;;24.83;47.64
32875;BME280;40468;42.128;24.750;2022-08-19T03:49:08;99223.97;;;24.83;47.83
32875;BME280;40468;42.128;24.750;2022-08-19T03:50:39;99221.97;;;24.85;47.76
32875;BME280;40468;42.128;24.750;2022-08-19T03:52:11;99225.25;;;24.87;47.49
32875;BME280;40468;42.128;24.750;2022-08-19T03:53:41;99235.09;;;24.87;47.45
32875;BME280;40468;42.128;24.750;2022-08-19T03:55:13;99233.25;;;24.87;47.45
32875;BME280;40468;42.128;24.750;2022-08-19T03:56:46;99230.41;;;24.89;47.09
32875;BME280;40468;42.128;24.750;2022-08-19T03:58:19;99225.09;;;24.89;47.11
32875;BME280;40468;42.128;24.750;2022-08-19T03:59:49;99229.41;;;24.90;47.24
32875;BME280;40468;42.128;24.750;2022-08-19T04:01:22;99224.75;;;24.92;47.29
32875;BME280;40468;42.128;24.750;2022-08-19T04:02:53;99244.22;;;24.92;47.22
32875;BME280;40468;42.128;24.750;2022-08-19T04:04:25;99233.41;;;24.94;47.37
32875;BME280;40468;42.128;24.750;2022-08-19T04:05:57;99228.91;;;24.94;47.34
32875;BME280;40468;42.128;24.750;2022-08-19T04:07:29;99229.72;;;24.95;47.62
32875;BME280;40468;42.128;24.750;2022-08-19T04:09:02;99230.53;;;24.95;47.26
32875;BME280;40468;42.128;24.750;2022-08-19T04:10:34;99224.38;;;24.95;47.19
32875;BME280;40468;42.128;24.750;2022-08-19T04:12:08;99228.91;;;24.94;47.38
32875;BME280;40468;42.128;24.750;2022-08-19T04:13:39;99237.03;;;24.93;47.60
32875;BME280;40468;42.128;24.750;2022-08-19T04:15:10;99237.22;;;24.91;47.20
32875;BME280;40468;42.128;24.750;2022-08-19T04:16:42;99239.22;;;24.89;47.56
32875;BME280;40468;42.128;24.750;2022-08-19T04:18:13;99244.75;;;24.88;47.59
32875;BME280;40468;42.128;24.750;2022-08-19T04:19:45;99247.41;;;24.88;47.95
32875;BME280;40468;42.128;24.750;2022-08-19T04:21:17;99251.06;;;24.87;48.21
32875;BME280;40468;42.128;24.750;2022-08-19T04:22:48;99245.09;;;24.85;48.20
32875;BME280;40468;42.128;24.750;2022-08-19T04:24:20;99242.44;;;24.85;48.08
32875;BME280;40468;42.128;24.750;2022-08-19T04:25:52;99240.75;;;24.84;47.59
32875;BME280;40468;42.128;24.750;2022-08-19T04:27:25;99235.63;;;24.82;47.88
32875;BME280;40468;42.128;24.750;2022-08-19T04:28:57;99242.13;;;24.80;47.89
32875;BME280;40468;42.128;24.750;2022-08-19T04:30:27;99239.63;;;24.78;47.67
32875;BME280;40468;42.128;24.750;2022-08-19T04:31:59;99236.47;;;24.74;47.42
32875;BME280;40468;42.128;24.750;2022-08-19T04:33:31;99242.00;;;24.73;47.52
32875;BME280;40468;42.128;24.750;2022-08-19T04:35:02;99237.84;;;24.70;47.66
32875;BME280;40468;42.128;24.750;2022-08-19T04:36:34;99242.34;;;24.70;47.61
32875;BME280;40468;42.128;24.750;2022-08-19T04:38:06;99250.16;;;24.71;47.61
32875;BME280;40468;42.128;24.750;2022-08-19T04:39:38;99246.47;;;24.72;47.39
32875;BME280;40468;42.128;24.750;2022-08-19T04:41:27;99244.00;;;24.71;47.63
32875;BME280;40468;42.128;24.750;2022-08-19T04:43:20;99249.78;;;24.74;47.78
32875;BME280;40468;42.128;24.750;2022-08-19T04:44:51;99252.31;;;24.76;47.74
32875;BME280;40468;42.128;24.750;2022-08-19T04:46:22;99249.44;;;24.78;47.40
32875;BME280;40468;42.128;24.750;2022-08-19T04:47:54;99254.44;;;24.81;47.71
32875;BME280;40468;42.128;24.750;2022-08-19T04:49:27;99251.59;;;24.82;48.00
32875;BME280;40468;42.128;24.750;2022-08-19T04:51:00;99253.59;;;24.80;48.71
32875;BME280;40468;42.128;24.750;2022-08-19T04:52:32;99255.44;;;24.80;48.68
32875;BME280;40468;42.128;24.750;2022-08-19T04:54:03;99252.78;;;24.80;48.78
32875;BME280;40468;42.128;24.750;2022-08-19T04:55:38;99248.94;;;24.82;49.01
32875;BME280;40468;42.128;24.750;2022-08-19T04:57:09;99248.75;;;24.84;48.44
32875;BME280;40468;42.128;24.750;2022-08-19T04:58:43;99248.75;;;24.84;49.18
32875;BME280;40468;42.128;24.750;2022-08-19T05:00:15;99250.44;;;24.85;48.63
32875;BME280;40468;42.128;24.750;2022-08-19T05:01:47;99244.75;;;24.88;48.73
32875;BME280;40468;42.128;24.750;2022-08-19T05:03:20;99247.06;;;24.91;48.18
32875;BME280;40468;42.128;24.750;2022-08-19T05:04:56;99252.03;;;24.94;48.29
32875;BME280;40468;42.128;24.750;2022-08-19T05:06:28;99248.69;;;25.00;47.94
32875;BME280;40468;42.128;24.750;2022-08-19T05:08:03;99251.63;;;25.05;48.07
32875;BME280;40468;42.128;24.750;2022-08-19T05:09:36;99250.28;;;25.09;47.98
32875;BME280;40468;42.128;24.750;2022-08-19T05:11:08;99242.75;;;25.13;47.95
32875;BME280;40468;42.128;24.750;2022-08-19T05:12:39;99246.75;;;25.17;48.07
32875;BME280;40468;42.128;24.750;2022-08-19T05:14:12;99247.25;;;25.21;47.77
32875;BME280;40468;42.128;24.750;2022-08-19T05:15:44;99258.53;;;25.23;47.87
32875;BME280;40468;42.128;24.750;2022-08-19T05:17:24;99256.72;;;25.23;48.45
32875;BME280;40468;42.128;24.750;2022-08-19T05:18:56;99260.22;;;25.24;48.60
32875;BME280;40468;42.128;24.750;2022-08-19T05:20:45;99268.84;;;25.26;48.81
32875;BME280;40468;42.128;24.750;2022-08-19T05:22:34;99261.97;;;25.31;48.51
32875;BME280;40468;42.128;24.750;2022-08-19T05:24:08;99257.78;;;25.37;47.87
32875;BME280;40468;42.128;24.750;2022-08-19T05:25:40;99252.75;;;25.42;47.85
32875;BME280;40468;42.128;24.750;2022-08-19T05:27:11;99258.38;;;25.47;47.68
32875;BME280;40468;42.128;24.750;2022-08-19T05:28:43;99258.50;;;25.54;47.91
32875;BME280;40468;42.128;24.750;2022-08-19T05:30:16;99256.13;;;25.59;47.71
32875;BME280;40468;42.128;24.750;2022-08-19T05:31:48;99258.06;;;25.65;47.31
32875;BME280;40468;42.128;24.750;2022-08-19T05:33:20;99261.00;;;25.70;46.85
32875;BME280;40468;42.128;24.750;2022-08-19T05:34:52;99262.13;;;25.76;46.77
32875;BME280;40468;42.128;24.750;2022-08-19T05:36:24;99262.44;;;25.81;46.65
32875;BME280;40468;42.128;24.750;2022-08-19T05:37:55;99260.72;;;25.88;46.00
32875;BME280;40468;42.128;24.750;2022-08-19T05:39:27;99269.41;;;26.05;46.05
32875;BME280;40468;42.128;24.750;2022-08-19T05:41:00;99273.84;;;26.87;44.15
32875;BME280;40468;42.128;24.750;2022-08-19T05:42:31;99269.75;;;28.13;41.24
32875;BME280;40468;42.128;24.750;2022-08-19T05:44:04;99267.88;;;28.90;40.18
32875;BME280;40468;42.128;24.750;2022-08-19T05:45:41;99255.19;;;29.12;39.05
32875;BME280;40468;42.128;24.750;2022-08-19T05:47:13;99263.16;;;28.98;39.44
32875;BME280;40468;42.128;24.750;2022-08-19T05:48:45;99264.13;;;28.77;39.71
32875;BME280;40468;42.128;24.750;2022-08-19T05:50:17;99265.06;;;28.63;40.27
32875;BME280;40468;42.128;24.750;2022-08-19T05:51:49;99254.75;;;28.60;40.27
32875;BME280;40468;42.128;24.750;2022-08-19T05:53:19;99257.25;;;28.62;40.11
32875;BME280;40468;42.128;24.750;2022-08-19T05:54:51;99253.13;;;28.59;39.90
32875;BME280;40468;42.128;24.750;2022-08-19T05:56:24;99262.75;;;28.47;40.28
32875;BME280;40468;42.128;24.750;2022-08-19T05:57:56;99263.41;;;28.27;40.00
32875;BME280;40468;42.128;24.750;2022-08-19T05:59:28;99270.75;;;28.12;40.53
32875;BME280;40468;42.128;24.750;2022-08-19T06:01:01;99245.75;;;27.98;40.99
32875;BME280;40468;42.128;24.750;2022-08-19T06:02:35;99264.91;;;28.02;40.76
32875;BME280;40468;42.128;24.750;2022-08-19T06:04:07;99272.50;;;27.98;41.03
32875;BME280;40468;42.128;24.750;2022-08-19T06:05:37;99269.38;;;27.95;41.51
32875;BME280;40468;42.128;24.750;2022-08-19T06:07:09;99273.09;;;27.94;41.33
32875;BME280;40468;42.128;24.750;2022-08-19T06:08:41;99266.69;;;27.95;41.64
32875;BME280;40468;42.128;24.750;2022-08-19T06:10:13;99269.19;;;27.96;41.09
32875;BME280;40468;42.128;24.750;2022-08-19T06:11:45;99274.72;;;27.95;41.46
32875;BME280;40468;42.128;24.750;2022-08-19T06:13:17;99276.59;;;27.94;41.05
32875;BME280;40468;42.128;24.750;2022-08-19T06:14:49;99271.84;;;27.89;41.37
32875;BME280;40468;42.128;24.750;2022-08-19T06:16:24;99275.31;;;27.90;41.52
32875;BME280;40468;42.128;24.750;2022-08-19T06:17:55;99275.13;;;27.92;41.25
32875;BME280;40468;42.128;24.750;2022-08-19T06:19:28;99276.00;;;27.99;41.46
32875;BME280;40468;42.128;24.750;2022-08-19T06:21:00;99280.16;;;28.01;41.07
32875;BME280;40468;42.128;24.750;2022-08-19T06:22:36;99281.59;;;28.04;40.79
32875;BME280;40468;42.128;24.750;2022-08-19T06:24:09;99276.88;;;28.06;40.50
32875;BME280;40468;42.128;24.750;2022-08-19T06:25:41;99279.38;;;28.07;40.79
32875;BME280;40468;42.128;24.750;2022-08-19T06:27:13;99276.06;;;28.05;40.78
32875;BME280;40468;42.128;24.750;2022-08-19T06:28:46;99275.44;;;28.10;40.63
32875;BME280;40468;42.128;24.750;2022-08-19T06:30:17;99275.53;;;28.17;40.76
32875;BME280;40468;42.128;24.750;2022-08-19T06:31:51;99274.13;;;28.27;40.91
32875;BME280;40468;42.128;24.750;2022-08-19T06:33:23;99279.75;;;28.39;40.25
32875;BME280;40468;42.128;24.750;2022-08-19T06:34:55;99282.13;;;28.49;40.28
32875;BME280;40468;42.128;24.750;2022-08-19T06:36:27;99283.41;;;28.60;40.44
32875;BME280;40468;42.128;24.750;2022-08-19T06:38:01;99281.38;;;28.68;40.02
32875;BME280;40468;42.128;24.750;2022-08-19T06:39:34;99286.19;;;28.79;39.93
32875;BME280;40468;42.128;24.750;2022-08-19T06:41:08;99289.13;;;28.91;39.88
32875;BME280;40468;42.128;24.750;2022-08-19T06:42:39;99290.44;;;29.02;39.95
32875;BME280;40468;42.128;24.750;2022-08-19T06:44:11;99288.41;;;29.11;39.27
32875;BME280;40468;42.128;24.750;2022-08-19T06:45:43;99285.09;;;29.15;38.87
32875;BME280;40468;42.128;24.750;2022-08-19T06:47:17;99276.06;;;29.23;38.53
32875;BME280;40468;42.128;24.750;2022-08-19T06:48:49;99285.16;;;29.29;38.49
32875;BME280;40468;42.128;24.750;2022-08-19T06:50:23;99285.56;;;29.32;38.17
32875;BME280;40468;42.128;24.750;2022-08-19T06:51:55;99291.34;;;29.36;38.57
32875;BME280;40468;42.128;24.750;2022-08-19T06:53:28;99291.97;;;29.38;38.22
32875;BME280;40468;42.128;24.750;2022-08-19T06:54:59;99294.25;;;29.41;38.30
32875;BME280;40468;42.128;24.750;2022-08-19T06:56:31;99284.13;;;29.43;38.14
32875;BME280;40468;42.128;24.750;2022-08-19T06:58:04;99290.75;;;29.47;38.10
32875;BME280;40468;42.128;24.750;2022-08-19T06:59:36;99285.78;;;29.51;38.13
32875;BME280;40468;42.128;24.750;2022-08-19T07:01:08;99287.03;;;29.55;38.09
32875;BME280;40468;42.128;24.750;2022-08-19T07:02:40;99280.44;;;29.57;37.53
32875;BME280;40468;42.128;24.750;2022-08-19T07:04:11;99283.09;;;29.51;37.76
32875;BME280;40468;42.128;24.750;2022-08-19T07:05:43;99282.28;;;29.43;37.85
32875;BME280;40468;42.128;24.750;2022-08-19T07:07:15;99274.44;;;29.42;37.87
32875;BME280;40468;42.128;24.750;2022-08-19T07:08:47;99280.66;;;29.49;38.35
32875;BME280;40468;42.128;24.750;2022-08-19T07:10:18;99276.91;;;29.57;38.08
32875;BME280;40468;42.128;24.750;2022-08-19T07:11:51;99270.56;;;29.64;38.10
32875;BME280;40468;42.128;24.750;2022-08-19T07:13:23;99272.84;;;29.74;38.15
32875;BME280;40468;42.128;24.750;2022-08-19T07:14:55;99271.59;;;29.83;37.96
32875;BME280;40468;42.128;24.750;2022-08-19T07:16:27;99275.72;;;29.92;37.66
32875;BME280;40468;42.128;24.750;2022-08-19T07:18:00;99269.72;;;30.04;37.75
32875;BME280;40468;42.128;24.750;2022-08-19T07:19:33;99273.66;;;30.14;37.62
32875;BME280;40468;42.128;24.750;2022-08-19T07:21:05;99266.00;;;30.25;36.92
32875;BME280;40468;42.128;24.750;2022-08-19T07:22:37;99269.09;;;30.35;37.08
32875;BME280;40468;42.128;24.750;2022-08-19T07:24:09;99261.81;;;30.42;36.59
32875;BME280;40468;42.128;24.750;2022-08-19T07:25:42;99267.19;;;30.49;36.18
32875;BME280;40468;42.128;24.750;2022-08-19T07:27:14;99268.63;;;30.51;36.29
32875;BME280;40468;42.128;24.750;2022-08-19T07:28:46;99268.59;;;30.58;35.89
32875;BME280;40468;42.128;24.750;2022-08-19T07:30:18;99269.19;;;30.67;35.87
32875;BME280;40468;42.128;24.750;2022-08-19T07:31:50;99272.06;;;30.72;35.36
32875;BME280;40468;42.128;24.750;2022-08-19T07:33:23;99266.47;;;30.73;34.84
32875;BME280;40468;42.128;24.750;2022-08-19T07:34:56;99270.19;;;30.79;34.92
32875;BME280;40468;42.128;24.750;2022-08-19T07:36:30;99270.56;;;30.89;35.05
32875;BME280;40468;42.128;24.750;2022-08-19T07:38:02;99266.59;;;30.98;35.05
32875;BME280;40468;42.128;24.750;2022-08-19T07:39:34;99270.69;;;31.08;34.66
32875;BME280;40468;42.128;24.750;2022-08-19T07:41:06;99259.44;;;31.17;34.48
32875;BME280;40468;42.128;24.750;2022-08-19T07:42:38;99254.44;;;31.27;34.32
32875;BME280;40468;42.128;24.750;2022-08-19T07:44:12;99255.59;;;31.38;34.49
32875;BME280;40468;42.128;24.750;2022-08-19T07:45:44;99260.28;;;31.49;33.99
32875;BME280;40468;42.128;24.750;2022-08-19T07:47:17;99253.16;;;31.62;33.91
32875;BME280;40468;42.128;24.750;2022-08-19T07:48:50;99260.75;;;31.71;33.56
32875;BME280;40468;42.128;24.750;2022-08-19T07:50:22;99259.19;;;31.82;33.42
32875;BME280;40468;42.128;24.750;2022-08-19T07:51:55;99248.19;;;31.90;33.16
32875;BME280;40468;42.128;24.750;2022-08-19T07:53:27;99249.09;;;32.03;33.24
32875;BME280;40468;42.128;24.750;2022-08-19T07:54:59;99262.44;;;32.16;33.49
32875;BME280;40468;42.128;24.750;2022-08-19T07:56:33;99255.03;;;32.30;33.06
32875;BME280;40468;42.128;24.750;2022-08-19T07:58:05;99263.38;;;32.47;32.71
32875;BME280;40468;42.128;24.750;2022-08-19T07:59:37;99249.38;;;32.56;32.41
32875;BME280;40468;42.128;24.750;2022-08-19T08:01:09;99254.38;;;32.71;32.75
32875;BME280;40468;42.128;24.750;2022-08-19T08:02:42;99246.94;;;32.85;32.62
32875;BME280;40468;42.128;24.750;2022-08-19T08:04:15;99254.66;;;33.00;32.09